Time;durP1;ratioP1;P1;durP2;ratioP2;P2;SDS_P1;SDS_P2;PMS_P1;PMS_P2;Temp;Humidity;BMP_temperature;BMP_pressure;BME280_temperature;BME280_humidity;BME280_pressure;Samples;Min_cycle;Max_cycle;Signal;HPM_P1;HPM_P2
2022/07/23 00:01:18;;;;;;;4.97;4.57;;;25.00;82.20;;;;;;5105797;28;20115;-71
2022/07/23 00:03:44;;;;;;;5.35;4.85;;;25.00;82.40;;;;;;5092377;28;20035;-71
2022/07/23 00:06:09;;;;;;;4.90;4.45;;;24.90;82.80;;;;;;5097476;28;20051;-71
2022/07/23 00:08:35;;;;;;;6.70;4.88;;;24.80;83.20;;;;;;5102254;28;20536;-72
2022/07/23 00:11:01;;;;;;;6.40;4.68;;;24.80;83.50;;;;;;5106543;28;20150;-71
2022/07/23 00:13:27;;;;;;;4.82;4.15;;;24.70;82.90;;;;;;5103602;28;20028;-71
2022/07/23 00:15:53;;;;;;;7.55;4.72;;;24.70;82.70;;;;;;5105277;28;20043;-72
2022/07/23 00:18:19;;;;;;;7.97;4.38;;;24.70;82.70;;;;;;5110270;28;20031;-72
2022/07/23 00:20:44;;;;;;;6.53;4.63;;;24.60;83.00;;;;;;5108735;28;20023;-72
2022/07/23 00:23:10;;;;;;;4.93;4.38;;;24.60;83.20;;;;;;5094090;28;20036;-71
2022/07/23 00:25:36;;;;;;;6.40;4.28;;;24.60;83.40;;;;;;5108682;28;20062;-73
2022/07/23 00:28:02;;;;;;;5.47;3.70;;;24.60;83.50;;;;;;5106511;28;20035;-72
2022/07/23 00:30:29;;;;;;;4.50;4.10;;;24.50;83.30;;;;;;5107735;28;20028;-72
2022/07/23 00:33:01;;;;;;;4.30;3.90;;;24.50;83.10;;;;;;5102116;28;20107;-72
2022/07/23 00:35:29;;;;;;;5.30;4.13;;;24.40;83.20;;;;;;5099052;28;20028;-71
2022/07/23 00:37:55;;;;;;;3.78;3.47;;;24.40;83.20;;;;;;5108598;28;20084;-72
2022/07/23 00:40:21;;;;;;;5.97;3.67;;;24.40;83.20;;;;;;5090100;28;20120;-72
2022/07/23 00:42:49;;;;;;;4.28;3.88;;;;;;;;;;5103820;28;20107;-72
2022/07/23 00:45:15;;;;;;;6.75;3.97;;;23.90;99.90;;;;;;5108492;28;20143;-72
2022/07/23 00:47:41;;;;;;;7.63;4.40;;;23.80;97.60;;;;;;5098369;28;20058;-73
2022/07/23 00:50:08;;;;;;;5.35;3.92;;;23.40;93.40;;;;;;5107953;28;20376;-72
2022/07/23 00:52:35;;;;;;;3.95;3.65;;;23.00;91.90;;;;;;5108184;28;20031;-71
2022/07/23 00:55:01;;;;;;;4.32;3.92;;;22.70;92.50;;;;;;5105922;28;20384;-71
2022/07/23 00:57:27;;;;;;;5.70;3.88;;;22.60;93.60;;;;;;5099327;28;20020;-71
2022/07/23 00:59:52;;;;;;;5.45;4.57;;;22.40;94.30;;;;;;5097137;28;20031;-71
2022/07/23 01:02:18;;;;;;;5.30;4.00;;;22.40;94.50;;;;;;5105505;28;20047;-72
2022/07/23 01:04:44;;;;;;;4.20;3.80;;;22.30;95.00;;;;;;5086833;28;20142;-72
2022/07/23 01:07:09;;;;;;;4.40;4.00;;;22.40;95.00;;;;;;5107765;28;20031;-71
2022/07/23 01:09:36;;;;;;;5.05;4.55;;;22.40;95.30;;;;;;5110257;28;20354;-71
2022/07/23 01:12:03;;;;;;;4.55;3.70;;;22.40;95.50;;;;;;5099910;28;20032;-71
2022/07/23 01:14:28;;;;;;;5.30;4.32;;;22.40;95.30;;;;;;5108803;28;20043;-70
2022/07/23 01:16:54;;;;;;;4.35;3.95;;;22.50;95.20;;;;;;5093027;28;20051;-70
2022/07/23 01:19:20;;;;;;;4.75;4.28;;;22.40;94.90;;;;;;5108351;28;20032;-70
2022/07/23 01:21:51;;;;;;;3.85;3.55;;;22.50;94.80;;;;;;5103247;28;20426;-71
2022/07/23 01:24:19;;;;;;;4.30;3.72;;;22.50;95.00;;;;;;5107498;28;20039;-71
2022/07/23 01:26:46;;;;;;;4.40;4.00;;;22.60;95.30;;;;;;5100239;28;20071;-72
2022/07/23 01:29:13;;;;;;;4.88;4.07;;;22.50;95.20;;;;;;5102179;28;20077;-71
2022/07/23 01:31:39;;;;;;;5.30;4.18;;;22.60;95.40;;;;;;5107428;28;20111;-71
2022/07/23 01:34:06;;;;;;;5.75;4.32;;;22.50;95.70;;;;;;5086359;28;20089;-71
2022/07/23 01:36:36;;;;;;;4.45;4.03;;;22.50;95.40;;;;;;5107910;28;20043;-71
2022/07/23 01:39:03;;;;;;;4.23;3.63;;;22.60;95.50;;;;;;5103394;28;20020;-71
2022/07/23 01:41:29;;;;;;;4.80;4.40;;;22.50;95.50;;;;;;5108235;28;20044;-72
2022/07/23 01:43:55;;;;;;;4.78;4.03;;;22.50;95.40;;;;;;5105121;28;20043;-71
2022/07/23 01:46:21;;;;;;;4.45;4.05;;;22.50;95.80;;;;;;5101507;28;20098;-71
2022/07/23 01:48:46;;;;;;;4.40;4.00;;;22.50;95.80;;;;;;5099908;28;20427;-71
2022/07/23 01:51:12;;;;;;;5.53;4.22;;;22.50;95.90;;;;;;5100930;28;20020;-71
2022/07/23 01:53:38;;;;;;;4.60;4.20;;;22.40;96.20;;;;;;5109383;28;20126;-72
2022/07/23 01:56:04;;;;;;;6.07;4.68;;;22.40;96.80;;;;;;5104591;28;20149;-72
2022/07/23 01:58:30;;;;;;;6.07;3.92;;;22.30;96.70;;;;;;5107634;28;20027;-71
2022/07/23 02:00:56;;;;;;;6.97;4.20;;;22.30;96.70;;;;;;5100117;28;20031;-71
2022/07/23 02:03:22;;;;;;;4.72;4.13;;;22.30;96.80;;;;;;5097220;28;20028;-71
2022/07/23 02:05:48;;;;;;;4.38;3.85;;;22.30;96.80;;;;;;5098634;28;20024;-71
2022/07/23 02:08:14;;;;;;;8.20;4.00;;;22.30;96.70;;;;;;5100559;28;20460;-72
2022/07/23 02:10:39;;;;;;;4.93;4.30;;;22.30;96.40;;;;;;5103958;28;20031;-72
2022/07/23 02:13:05;;;;;;;5.05;4.50;;;22.40;96.00;;;;;;5098434;28;20579;-73
2022/07/23 02:15:30;;;;;;;4.15;3.75;;;22.40;95.90;;;;;;5112818;28;20026;-70
2022/07/23 02:17:56;;;;;;;6.40;4.13;;;22.30;96.00;;;;;;5110749;28;20124;-72
2022/07/23 02:20:22;;;;;;;5.13;4.63;;;22.30;96.20;;;;;;5111450;28;20030;-72
2022/07/23 02:22:48;;;;;;;4.57;4.18;;;22.30;96.20;;;;;;5102099;28;20028;-73
2022/07/23 02:25:14;;;;;;;5.68;4.55;;;22.30;96.60;;;;;;5106442;28;20036;-72
2022/07/23 02:27:39;;;;;;;4.43;4.03;;;22.20;97.10;;;;;;5100731;28;20098;-72
2022/07/23 02:30:06;;;;;;;4.30;3.83;;;22.20;97.70;;;;;;5105115;28;20027;-71
2022/07/23 02:32:32;;;;;;;4.13;3.80;;;22.10;98.10;;;;;;5105330;28;21275;-72
2022/07/23 02:34:57;;;;;;;5.28;4.10;;;22.00;98.20;;;;;;5100937;28;20047;-73
2022/07/23 02:37:23;;;;;;;6.13;4.95;;;21.90;98.20;;;;;;5109950;28;20384;-72
2022/07/23 02:39:50;;;;;;;4.85;4.30;;;21.90;98.40;;;;;;5111388;28;20090;-73
2022/07/23 02:42:16;;;;;;;5.60;4.97;;;21.90;98.70;;;;;;5102817;28;20071;-72
2022/07/23 02:44:42;;;;;;;4.97;4.28;;;21.80;98.80;;;;;;5099212;28;20028;-72
2022/07/23 02:47:07;;;;;;;5.57;4.60;;;21.80;98.90;;;;;;5109441;28;20373;-72
2022/07/23 02:49:33;;;;;;;4.32;4.00;;;21.80;99.00;;;;;;5107437;28;20031;-72
2022/07/23 02:51:59;;;;;;;4.22;3.92;;;21.80;99.00;;;;;;5107577;28;20028;-72
2022/07/23 02:54:24;;;;;;;6.13;4.15;;;21.80;99.10;;;;;;5114807;28;20042;-72
2022/07/23 02:56:51;;;;;;;5.82;4.32;;;21.70;99.20;;;;;;5105760;28;20024;-71
2022/07/23 02:59:17;;;;;;;5.03;4.30;;;21.80;99.30;;;;;;5101922;28;20087;-72
2022/07/23 03:01:43;;;;;;;4.90;4.20;;;21.80;99.30;;;;;;5084159;28;20468;-72
2022/07/23 03:04:09;;;;;;;4.53;4.20;;;21.80;99.40;;;;;;5093344;28;20040;-72
2022/07/23 03:06:34;;;;;;;5.07;4.50;;;21.80;99.50;;;;;;5107623;28;20024;-72
2022/07/23 03:09:00;;;;;;;6.07;4.45;;;21.80;99.50;;;;;;5107183;28;20028;-72
2022/07/23 03:11:25;;;;;;;5.13;4.55;;;21.90;99.60;;;;;;5107981;28;20056;-72
2022/07/23 03:13:51;;;;;;;4.53;4.13;;;21.80;99.70;;;;;;5108052;28;20043;-72
2022/07/23 03:16:17;;;;;;;5.05;4.20;;;21.90;99.60;;;;;;5107308;28;20051;-72
2022/07/23 03:18:42;;;;;;;4.97;4.50;;;21.90;99.60;;;;;;5102815;28;20048;-72
2022/07/23 03:21:08;;;;;;;5.75;4.10;;;21.90;99.40;;;;;;5104320;28;20516;-72
2022/07/23 03:23:34;;;;;;;5.03;4.50;;;21.90;99.40;;;;;;5107994;28;20063;-72
2022/07/23 03:26:00;;;;;;;5.25;4.47;;;21.90;99.30;;;;;;5104252;28;20035;-72
2022/07/23 03:28:25;;;;;;;5.40;4.50;;;21.90;99.20;;;;;;5086730;28;20077;-71
2022/07/23 03:30:51;;;;;;;5.07;4.57;;;21.90;99.10;;;;;;5109849;28;20035;-71
2022/07/23 03:33:18;;;;;;;6.30;4.97;;;22.00;99.10;;;;;;5089309;28;20040;-71
2022/07/23 03:35:46;;;;;;;4.88;4.47;;;22.00;99.10;;;;;;5098354;28;20492;-70
2022/07/23 03:38:12;;;;;;;5.13;4.35;;;22.00;99.10;;;;;;5111202;28;20020;-70
2022/07/23 03:40:38;;;;;;;5.07;4.57;;;22.00;99.10;;;;;;5105203;28;20025;-71
2022/07/23 03:43:03;;;;;;;5.28;4.78;;;21.90;99.20;;;;;;5098425;28;20097;-71
2022/07/23 03:45:29;;;;;;;8.60;4.53;;;21.90;99.20;;;;;;5109760;28;20107;-71
2022/07/23 03:47:54;;;;;;;5.15;4.65;;;21.90;99.20;;;;;;5101018;28;20030;-71
2022/07/23 03:50:20;;;;;;;5.40;4.90;;;21.90;99.50;;;;;;5103175;28;21247;-72
2022/07/23 03:52:46;;;;;;;7.90;5.25;;;21.80;99.70;;;;;;5097547;28;20031;-72
2022/07/23 03:55:12;;;;;;;5.25;4.75;;;21.80;99.90;;;;;;5104519;28;20468;-71
2022/07/23 03:57:38;;;;;;;5.50;5.05;;;21.70;99.90;;;;;;5104292;28;20119;-71
2022/07/23 04:00:06;;;;;;;5.93;5.10;;;21.70;99.90;;;;;;5108965;28;20361;-71
2022/07/23 04:02:31;;;;;;;5.03;4.57;;;21.60;99.90;;;;;;5101213;28;20099;-73
2022/07/23 04:04:58;;;;;;;5.43;4.93;;;21.60;99.90;;;;;;5103151;28;20108;-71
2022/07/23 04:07:23;;;;;;;6.22;5.13;;;21.60;99.90;;;;;;5096895;28;20182;-72
2022/07/23 04:09:49;;;;;;;5.97;5.38;;;21.50;99.90;;;;;;5104538;28;20504;-73
2022/07/23 04:12:15;;;;;;;7.20;5.88;;;21.50;99.90;;;;;;5104504;28;20026;-71
2022/07/23 04:14:40;;;;;;;6.00;5.47;;;21.50;99.90;;;;;;5101412;28;20040;-71
2022/07/23 04:17:06;;;;;;;7.38;6.05;;;21.50;99.90;;;;;;5090829;28;20497;-70
2022/07/23 04:19:32;;;;;;;7.05;5.70;;;21.60;99.90;;;;;;5100147;28;20034;-71
2022/07/23 04:21:58;;;;;;;6.55;5.65;;;21.60;99.90;;;;;;5110912;28;20024;-71
2022/07/23 04:24:23;;;;;;;6.22;5.38;;;21.60;99.90;;;;;;5097490;28;20032;-72
2022/07/23 04:26:49;;;;;;;6.32;5.30;;;21.70;99.90;;;;;;5109867;28;20481;-74
2022/07/23 04:29:14;;;;;;;6.63;5.63;;;21.90;99.90;;;;;;5100514;28;20039;-72
2022/07/23 04:31:40;;;;;;;6.85;4.65;;;21.90;99.90;;;;;;5107645;28;20022;-72
2022/07/23 04:34:06;;;;;;;5.63;4.78;;;22.00;99.90;;;;;;5099384;28;20058;-72
2022/07/23 04:36:31;;;;;;;8.20;5.07;;;22.00;99.90;;;;;;5110023;28;20502;-71
2022/07/23 04:38:57;;;;;;;5.32;4.75;;;22.10;99.90;;;;;;5103244;28;20110;-72
2022/07/23 04:41:23;;;;;;;5.25;4.68;;;22.10;99.90;;;;;;5106743;28;20027;-72
2022/07/23 04:43:48;;;;;;;5.78;4.75;;;22.10;99.90;;;;;;5094749;28;20036;-73
2022/07/23 04:46:14;;;;;;;5.40;4.90;;;22.20;99.70;;;;;;5108330;28;20026;-72
2022/07/23 04:48:39;;;;;;;8.48;4.88;;;22.20;99.60;;;;;;5104141;28;20028;-72
2022/07/23 04:51:05;;;;;;;4.85;4.38;;;22.30;99.40;;;;;;5106445;28;20138;-71
2022/07/23 04:53:31;;;;;;;5.32;4.82;;;22.30;99.20;;;;;;5101383;28;20043;-75
2022/07/23 04:55:57;;;;;;;7.00;4.80;;;22.40;99.00;;;;;;5104192;28;20020;-74
2022/07/23 04:58:23;;;;;;;7.25;4.38;;;22.50;98.80;;;;;;5108459;28;20493;-78
2022/07/23 05:00:48;;;;;;;4.97;4.47;;;22.50;98.60;;;;;;5093940;28;20106;-76
2022/07/23 05:03:14;;;;;;;6.07;4.80;;;22.60;98.50;;;;;;5093523;28;20042;-76
2022/07/23 05:05:40;;;;;;;5.22;4.57;;;22.70;98.30;;;;;;5102288;28;20354;-76
2022/07/23 05:08:05;;;;;;;5.47;4.97;;;22.80;98.30;;;;;;5109934;28;20069;-76
2022/07/23 05:10:31;;;;;;;5.07;4.57;;;22.80;98.30;;;;;;5101741;28;20031;-74
2022/07/23 05:12:57;;;;;;;4.93;4.53;;;22.80;98.30;;;;;;5105760;28;20106;-75
2022/07/23 05:15:23;;;;;;;4.80;4.30;;;22.90;98.20;;;;;;5102231;28;20024;-74
2022/07/23 05:17:49;;;;;;;4.75;4.35;;;22.90;98.10;;;;;;5087042;28;20693;-76
2022/07/23 05:20:15;;;;;;;6.90;4.68;;;23.00;98.10;;;;;;5108576;28;20031;-74
2022/07/23 05:22:41;;;;;;;4.85;4.32;;;23.00;98.00;;;;;;5107461;28;20032;-74
2022/07/23 05:25:07;;;;;;;5.57;4.90;;;23.10;98.10;;;;;;5105383;28;20704;-74
2022/07/23 05:27:32;;;;;;;5.22;4.68;;;23.00;98.10;;;;;;5102445;28;20023;-75
2022/07/23 05:29:58;;;;;;;5.80;5.07;;;23.00;98.10;;;;;;5103953;28;20036;-74
2022/07/23 05:32:24;;;;;;;6.78;4.80;;;23.00;97.90;;;;;;5093325;28;20031;-76
2022/07/23 05:34:50;;;;;;;4.93;4.53;;;23.10;97.90;;;;;;5087748;28;20036;-75
2022/07/23 05:37:16;;;;;;;5.82;4.93;;;23.10;97.80;;;;;;5106350;28;20103;-74
2022/07/23 05:39:41;;;;;;;7.55;4.85;;;23.30;97.80;;;;;;5107184;28;20036;-74
2022/07/23 05:42:07;;;;;;;6.35;5.57;;;23.40;97.40;;;;;;5106454;28;20035;-74
2022/07/23 05:44:33;;;;;;;8.25;5.03;;;23.50;97.20;;;;;;5103864;28;20055;-74
2022/07/23 05:46:58;;;;;;;7.57;5.25;;;23.50;97.00;;;;;;5102478;28;20028;-74
2022/07/23 05:49:24;;;;;;;5.38;4.88;;;23.60;96.90;;;;;;5107521;28;20402;-73
2022/07/23 05:51:50;;;;;;;6.57;5.40;;;23.60;96.80;;;;;;5099068;28;20024;-74
2022/07/23 05:54:16;;;;;;;6.38;5.03;;;23.70;97.20;;;;;;5109342;28;20039;-74
2022/07/23 05:56:41;;;;;;;5.43;4.95;;;23.80;96.50;;;;;;5104334;28;20028;-73
2022/07/23 05:59:07;;;;;;;8.85;5.28;;;23.80;96.60;;;;;;5108512;28;20031;-74
2022/07/23 06:01:32;;;;;;;6.22;4.60;;;23.80;96.80;;;;;;5105121;28;20039;-74
2022/07/23 06:03:58;;;;;;;5.60;4.78;;;23.90;96.80;;;;;;5090748;28;20038;-72
2022/07/23 06:06:24;;;;;;;5.90;5.30;;;24.00;96.70;;;;;;5102505;28;20044;-73
2022/07/23 06:08:49;;;;;;;5.85;5.25;;;23.90;96.90;;;;;;5095498;28;20032;-73
2022/07/23 06:11:15;;;;;;;5.30;4.80;;;23.90;97.00;;;;;;5102683;28;20091;-73
2022/07/23 06:13:41;;;;;;;5.45;4.80;;;23.90;96.90;;;;;;5085111;28;20060;-73
2022/07/23 06:16:07;;;;;;;5.97;5.05;;;23.90;97.10;;;;;;5103605;28;20456;-72
2022/07/23 06:18:33;;;;;;;6.55;5.20;;;23.80;97.00;;;;;;5103398;28;20481;-73
2022/07/23 06:20:59;;;;;;;5.63;4.97;;;23.90;97.10;;;;;;5103969;28;20028;-74
2022/07/23 06:23:24;;;;;;;5.43;4.93;;;23.90;96.80;;;;;;5103226;28;20032;-74
2022/07/23 06:25:50;;;;;;;5.78;4.95;;;23.90;96.70;;;;;;5097641;28;20024;-74
2022/07/23 06:28:15;;;;;;;9.75;5.57;;;24.00;96.40;;;;;;5075673;28;20489;-75
2022/07/23 06:30:41;;;;;;;6.47;5.18;;;24.10;95.70;;;;;;5098382;28;20015;-75
2022/07/23 06:33:07;;;;;;;6.50;5.65;;;24.20;95.60;;;;;;5098160;28;20043;-74
2022/07/23 06:35:33;;;;;;;7.47;5.35;;;24.30;95.70;;;;;;5097616;28;20024;-72
2022/07/23 06:37:59;;;;;;;6.53;5.93;;;24.30;95.90;;;;;;5102732;28;20035;-72
2022/07/23 06:40:25;;;;;;;6.65;5.72;;;24.50;95.80;;;;;;5102830;28;20440;-73
2022/07/23 06:42:51;;;;;;;6.75;5.15;;;24.60;95.20;;;;;;5087349;28;20114;-74
2022/07/23 06:45:17;;;;;;;5.93;5.32;;;24.70;94.80;;;;;;5094384;28;20034;-74
2022/07/23 06:47:42;;;;;;;5.45;4.95;;;24.80;95.00;;;;;;5092994;28;20032;-73
2022/07/23 06:50:08;;;;;;;6.47;5.88;;;24.80;94.90;;;;;;5091182;28;20024;-74
2022/07/23 06:52:34;;;;;;;5.82;5.00;;;24.90;94.20;;;;;;5093975;28;20095;-74
2022/07/23 06:54:59;;;;;;;7.07;5.30;;;24.90;93.70;;;;;;5102429;28;20101;-73
2022/07/23 06:57:25;;;;;;;5.35;4.82;;;24.90;93.90;;;;;;5095673;28;20377;-73
2022/07/23 06:59:51;;;;;;;5.47;4.97;;;24.90;93.30;;;;;;5095147;28;20028;-74
2022/07/23 07:02:17;;;;;;;5.78;5.18;;;24.90;93.50;;;;;;5086214;28;20032;-73
2022/07/23 07:04:43;;;;;;;8.00;5.28;;;24.90;93.40;;;;;;5096356;28;20039;-74
2022/07/23 07:07:08;;;;;;;8.07;5.47;;;24.80;93.30;;;;;;5101307;28;20034;-74
2022/07/23 07:09:34;;;;;;;7.57;5.53;;;24.70;93.50;;;;;;5100712;28;20081;-73
2022/07/23 07:12:00;;;;;;;7.00;5.30;;;24.70;93.70;;;;;;5093678;28;20027;-72
2022/07/23 07:14:25;;;;;;;7.13;5.07;;;24.40;94.00;;;;;;5097095;28;20037;-72
2022/07/23 07:16:51;;;;;;;6.43;5.82;;;24.40;94.10;;;;;;5096009;28;20063;-71
2022/07/23 07:19:16;;;;;;;6.25;5.65;;;24.40;94.30;;;;;;5102286;28;20091;-72
2022/07/23 07:21:42;;;;;;;8.73;5.90;;;24.40;94.10;;;;;;5104664;28;20016;-71
2022/07/23 07:24:08;;;;;;;11.50;6.15;;;24.30;94.40;;;;;;5108253;28;20447;-73
2022/07/23 07:26:34;;;;;;;9.00;5.82;;;24.30;94.20;;;;;;5107439;28;20476;-73
2022/07/23 07:29:00;;;;;;;6.35;5.07;;;24.20;94.60;;;;;;5099960;28;20032;-72
2022/07/23 07:31:25;;;;;;;5.68;5.15;;;23.90;94.70;;;;;;5110071;28;20030;-74
2022/07/23 07:33:51;;;;;;;7.07;5.60;;;23.80;95.00;;;;;;5095245;28;20535;-73
2022/07/23 07:36:17;;;;;;;7.03;5.47;;;23.60;95.30;;;;;;5085059;28;20080;-72
2022/07/23 07:38:42;;;;;;;8.07;5.93;;;23.50;95.80;;;;;;5109320;28;20059;-73
2022/07/23 07:41:09;;;;;;;8.23;5.60;;;23.40;96.10;;;;;;5107039;28;20042;-75
2022/07/23 07:43:36;;;;;;;9.07;6.65;;;23.30;96.70;;;;;;5100499;28;20407;-73
2022/07/23 07:46:03;;;;;;;9.63;6.30;;;23.30;97.10;;;;;;5110970;28;20032;-74
2022/07/23 07:48:28;;;;;;;8.50;5.68;;;23.30;97.50;;;;;;5088176;28;20492;-74
2022/07/23 07:50:54;;;;;;;7.70;5.60;;;23.50;97.50;;;;;;5100700;28;20028;-76
2022/07/23 07:53:20;;;;;;;7.13;5.70;;;23.70;97.30;;;;;;5100454;28;20024;-75
2022/07/23 07:55:46;;;;;;;8.57;6.15;;;23.90;97.10;;;;;;5105088;28;20020;-76
2022/07/23 07:58:11;;;;;;;6.43;5.82;;;24.00;96.90;;;;;;5108770;28;20026;-73
2022/07/23 08:00:37;;;;;;;7.50;5.88;;;24.10;97.00;;;;;;5107610;28;20030;-72
2022/07/23 08:03:03;;;;;;;6.53;5.68;;;24.20;96.40;;;;;;5099595;28;20039;-73
2022/07/23 08:05:30;;;;;;;5.78;5.22;;;24.20;96.50;;;;;;5106018;28;20035;-72
2022/07/23 08:07:57;;;;;;;6.88;5.32;;;24.10;96.50;;;;;;5107505;28;20011;-72
2022/07/23 08:10:24;;;;;;;5.43;4.60;;;24.30;95.70;;;;;;5097139;28;20051;-74
2022/07/23 08:12:53;;;;;;;5.55;5.00;;;24.50;95.00;;;;;;5099870;28;20241;-72
2022/07/23 08:15:20;;;;;;;8.07;4.95;;;24.60;94.80;;;;;;5104348;28;20617;-85
2022/07/23 08:17:47;;;;;;;5.68;5.05;;;24.60;94.50;;;;;;5095459;28;20114;-84
2022/07/23 08:20:14;;;;;;;6.03;4.80;;;24.70;94.60;;;;;;5101381;28;20522;-79
2022/07/23 08:23:02;;;;;;;5.95;5.20;;;24.90;94.00;;;;;;5097179;28;20031;-81
2022/07/23 08:25:31;;;;;;;4.93;4.47;;;25.10;93.50;;;;;;5099547;28;20039;-85
2022/07/23 08:27:58;;;;;;;7.03;5.15;;;25.00;93.50;;;;;;5095912;28;20050;-75
2022/07/23 08:30:23;;;;;;;5.90;5.40;;;24.90;93.40;;;;;;5091329;28;20465;-79
2022/07/23 08:32:51;;;;;;;5.93;5.30;;;24.70;93.80;;;;;;5096704;28;20104;-79
2022/07/23 08:35:18;;;;;;;5.55;4.95;;;24.40;94.10;;;;;;5101727;28;20075;-85
2022/07/23 08:37:44;;;;;;;7.47;5.57;;;24.20;94.70;;;;;;5099548;28;20469;-86
2022/07/23 08:40:10;;;;;;;5.10;4.60;;;24.10;95.00;;;;;;5104724;28;20073;-85
2022/07/23 08:42:36;;;;;;;5.57;4.90;;;23.90;95.40;;;;;;5105474;28;20072;-84
2022/07/23 08:45:03;;;;;;;6.60;5.38;;;23.90;95.70;;;;;;5095297;28;20024;-78
2022/07/23 08:47:30;;;;;;;5.82;5.22;;;24.00;95.50;;;;;;5096671;28;20035;-77
2022/07/23 08:49:59;;;;;;;5.68;5.18;;;24.10;95.50;;;;;;5107945;28;20077;-84
2022/07/23 08:52:25;;;;;;;6.95;5.07;;;24.10;95.40;;;;;;5110729;28;20031;-85
2022/07/23 08:54:52;;;;;;;8.50;5.60;;;24.20;95.30;;;;;;5107313;28;20493;-84
2022/07/23 08:57:18;;;;;;;4.72;4.32;;;24.20;95.10;;;;;;5109578;28;20028;-86
2022/07/23 08:59:44;;;;;;;5.63;5.07;;;24.40;94.90;;;;;;5102674;28;20054;-83
2022/07/23 09:02:09;;;;;;;4.82;4.40;;;24.60;94.30;;;;;;5094737;28;20028;-76
2022/07/23 09:04:35;;;;;;;6.63;5.95;;;24.80;93.90;;;;;;5101981;28;20066;-83
2022/07/23 09:07:02;;;;;;;5.75;5.25;;;25.20;94.00;;;;;;5102998;28;20024;-76
2022/07/23 09:09:30;;;;;;;5.88;5.28;;;25.50;93.60;;;;;;5111209;28;20024;-84
2022/07/23 09:12:04;;;;;;;5.78;5.28;;;25.80;93.40;;;;;;5101157;28;20027;-83
2022/07/23 09:14:36;;;;;;;5.35;4.85;;;26.10;92.90;;;;;;5100371;28;20035;-81
2022/07/23 09:17:13;;;;;;;6.20;5.32;;;26.30;92.70;;;;;;5106638;28;20052;-76
2022/07/23 09:19:40;;;;;;;7.53;5.07;;;26.50;91.70;;;;;;5100849;28;20036;-85
2022/07/23 09:22:21;;;;;;;6.82;5.05;;;26.70;91.30;;;;;;5115020;28;20106;-84
2022/07/23 09:25:22;;;;;;;5.32;4.82;;;26.80;91.00;;;;;;5101533;28;20085;-83
2022/07/23 09:27:54;;;;;;;5.20;4.68;;;27.10;90.10;;;;;;5067667;28;20029;-79
2022/07/23 09:30:27;;;;;;;6.30;4.90;;;27.30;89.90;;;;;;5082619;28;20040;-79
2022/07/23 09:33:15;;;;;;;4.57;4.28;;;27.60;89.10;;;;;;5093918;28;20027;-79
2022/07/23 09:35:52;;;;;;;6.93;5.07;;;27.90;87.30;;;;;;5095892;28;20485;-80
2022/07/23 09:38:20;;;;;;;7.05;5.00;;;28.00;85.70;;;;;;5100250;28;20028;-81
2022/07/23 09:40:47;;;;;;;5.95;5.35;;;28.30;83.80;;;;;;5102614;28;20020;-81
2022/07/23 09:43:29;;;;;;;5.45;4.95;;;28.50;83.10;;;;;;5099466;28;20084;-81
2022/07/23 09:46:19;;;;;;;5.60;4.97;;;28.50;81.80;;;;;;5108032;28;20027;-79
2022/07/23 09:48:45;;;;;;;6.97;5.20;;;28.60;80.90;;;;;;5098078;28;20023;-79
2022/07/23 09:51:12;;;;;;;5.35;4.85;;;28.90;82.40;;;;;;5106232;28;20062;-80
2022/07/23 09:53:37;;;;;;;5.78;5.20;;;28.90;81.40;;;;;;5091598;28;20042;-80
2022/07/23 09:56:04;;;;;;;11.48;5.50;;;28.80;80.70;;;;;;5109406;28;20031;-75
2022/07/23 09:58:30;;;;;;;5.68;5.15;;;28.60;82.30;;;;;;5110546;28;20060;-77
2022/07/23 10:00:58;;;;;;;6.35;5.22;;;28.60;81.30;;;;;;5110012;28;20034;-79
2022/07/23 10:03:24;;;;;;;9.43;5.65;;;28.60;81.10;;;;;;5095632;28;20096;-81
2022/07/23 10:05:51;;;;;;;6.68;5.25;;;28.70;81.20;;;;;;5109849;28;20035;-79
2022/07/23 10:08:18;;;;;;;5.45;4.93;;;28.70;80.10;;;;;;5109463;28;20038;-79
2022/07/23 10:10:46;;;;;;;5.15;4.75;;;28.40;80.30;;;;;;5101499;28;20031;-81
2022/07/23 10:15:46;;;;;;;6.30;5.80;;;28.40;80.50;;;;;;5109738;28;20028;-80
2022/07/23 10:18:12;;;;;;;5.97;5.22;;;28.40;79.90;;;;;;5103539;28;20125;-78
2022/07/23 10:20:39;;;;;;;6.70;5.30;;;28.40;80.60;;;;;;5105889;28;20461;-80
2022/07/23 10:23:43;;;;;;;5.53;5.03;;;28.50;79.80;;;;;;5102551;28;20027;-76
2022/07/23 10:26:21;;;;;;;8.23;5.95;;;28.50;79.40;;;;;;5089549;28;20077;-84
2022/07/23 10:29:05;;;;;;;5.43;4.93;;;28.70;79.10;;;;;;5097824;28;20036;-82
2022/07/23 10:31:52;;;;;;;6.65;5.18;;;28.80;80.40;;;;;;5109242;28;20114;-78
2022/07/23 10:34:58;;;;;;;7.93;5.28;;;29.10;78.20;;;;;;5100886;28;20038;-79
2022/07/23 10:37:37;;;;;;;5.00;4.60;;;29.30;76.70;;;;;;5030704;28;20347;-81
2022/07/23 10:40:19;;;;;;;5.70;5.20;;;29.40;76.80;;;;;;5109675;28;20472;-77
2022/07/23 10:42:48;;;;;;;6.95;4.55;;;29.50;75.60;;;;;;5097872;28;20053;-79
2022/07/23 10:45:30;;;;;;;5.57;5.07;;;29.60;75.00;;;;;;5100164;28;20035;-80
2022/07/23 10:48:10;;;;;;;5.93;5.20;;;29.60;74.60;;;;;;5105356;28;20077;-83
2022/07/23 10:50:36;;;;;;;5.57;5.07;;;29.70;74.60;;;;;;5107844;28;20016;-82
2022/07/23 10:53:18;;;;;;;6.25;5.28;;;29.70;75.10;;;;;;5106317;28;20032;-79
2022/07/23 10:55:51;;;;;;;6.00;5.45;;;29.50;74.80;;;;;;5099689;28;20039;-81
2022/07/23 10:58:20;;;;;;;5.75;4.72;;;29.60;74.80;;;;;;5100207;28;20032;-81
2022/07/23 11:00:46;;;;;;;5.53;4.90;;;29.70;72.90;;;;;;5102225;28;20057;-81
2022/07/23 11:03:32;;;;;;;4.95;4.45;;;29.90;71.20;;;;;;5087007;28;20052;-80
2022/07/23 11:05:57;;;;;;;4.90;4.50;;;30.10;70.80;;;;;;5112026;28;20096;-82
2022/07/23 11:08:23;;;;;;;5.75;5.10;;;30.30;70.90;;;;;;5093972;28;20452;-82
2022/07/23 11:10:52;;;;;;;6.13;4.80;;;30.50;72.10;;;;;;5104936;28;20032;-78
2022/07/23 11:13:46;;;;;;;5.10;4.65;;;30.20;70.10;;;;;;5112119;28;20023;-77
2022/07/23 11:16:15;;;;;;;5.70;5.20;;;30.00;70.20;;;;;;5109025;28;20019;-77
2022/07/23 11:18:43;;;;;;;6.85;5.07;;;30.10;69.70;;;;;;5094312;28;20472;-70
2022/07/23 11:21:21;;;;;;;5.57;4.72;;;30.10;70.50;;;;;;5105497;28;20106;-70
2022/07/23 11:24:16;;;;;;;4.68;4.35;;;29.80;70.80;;;;;;5106096;28;20035;-70
2022/07/23 11:26:46;;;;;;;5.38;4.93;;;30.00;71.30;;;;;;5092952;28;20085;-70
2022/07/23 11:29:27;;;;;;;;;;;30.10;70.80;;;;;;5104051;28;20043;-70
2022/07/23 11:32:08;;;;;;;7.03;5.18;;;30.50;71.30;;;;;;5102120;28;19999;-70
2022/07/23 11:34:42;;;;;;;7.05;5.32;;;31.00;69.90;;;;;;5096355;28;20039;-70
2022/07/23 11:37:26;;;;;;;5.82;5.32;;;31.30;71.20;;;;;;5089559;28;20361;-70
2022/07/23 11:39:57;;;;;;;5.68;5.10;;;31.30;69.80;;;;;;5107385;28;20110;-70
2022/07/23 11:42:23;;;;;;;4.57;4.28;;;31.30;70.40;;;;;;5100730;28;20039;-70
2022/07/23 11:44:50;;;;;;;6.68;5.07;;;31.30;69.80;;;;;;5104696;28;20028;-70
2022/07/23 11:47:24;;;;;;;5.72;5.25;;;31.30;69.40;;;;;;5100118;28;20032;-73
2022/07/23 11:49:55;;;;;;;6.70;5.35;;;30.90;70.40;;;;;;5106872;28;20028;-68
2022/07/23 11:52:22;;;;;;;5.70;5.20;;;30.70;70.70;;;;;;5110466;28;20495;-71
2022/07/23 11:54:50;;;;;;;6.35;5.50;;;30.70;70.50;;;;;;5103808;28;20481;-70
2022/07/23 11:57:16;;;;;;;6.03;5.20;;;30.60;70.50;;;;;;5108962;28;20103;-71
2022/07/23 11:59:46;;;;;;;6.68;5.03;;;30.50;70.90;;;;;;5101691;28;20484;-71
2022/07/23 12:02:11;;;;;;;8.02;5.43;;;30.60;71.00;;;;;;5077441;28;20036;-71
2022/07/23 12:04:48;;;;;;;8.55;5.22;;;30.40;70.70;;;;;;5100478;28;20044;-71
2022/07/23 12:07:27;;;;;;;5.47;4.95;;;30.30;70.90;;;;;;5105273;28;20026;-71
2022/07/23 12:09:53;;;;;;;6.00;5.50;;;30.40;71.00;;;;;;5095742;28;20429;-70
2022/07/23 12:12:19;;;;;;;5.60;5.10;;;30.50;71.20;;;;;;5088903;28;20144;-71
2022/07/23 12:14:53;;;;;;;6.70;5.72;;;30.70;71.40;;;;;;5107906;28;20067;-71
2022/07/23 12:17:20;;;;;;;5.82;5.32;;;30.60;70.70;;;;;;5101741;28;20090;-70
2022/07/23 12:19:46;;;;;;;7.30;5.93;;;30.50;70.60;;;;;;5105497;28;20468;-71
2022/07/23 12:22:14;;;;;;;5.72;5.15;;;30.60;70.10;;;;;;5102508;28;20024;-71
2022/07/23 12:25:00;;;;;;;5.50;5.00;;;30.70;70.30;;;;;;5105158;28;20040;-70
2022/07/23 12:27:27;;;;;;;7.75;5.15;;;30.70;70.10;;;;;;5091363;28;20027;-70
2022/07/23 12:29:53;;;;;;;6.70;5.82;;;30.80;70.40;;;;;;5110298;28;20052;-71
2022/07/23 12:32:23;;;;;;;5.80;5.07;;;30.90;70.00;;;;;;5097759;28;20021;-71
2022/07/23 12:35:05;;;;;;;6.07;5.53;;;31.10;69.50;;;;;;5084649;28;20028;-71
2022/07/23 12:37:36;;;;;;;6.10;5.38;;;31.10;69.00;;;;;;5079907;28;20028;-71
2022/07/23 12:40:28;;;;;;;6.35;5.70;;;31.20;68.00;;;;;;5101032;28;20034;-71
2022/07/23 12:43:00;;;;;;;5.75;5.25;;;31.00;68.40;;;;;;5098291;28;20093;-71
2022/07/23 12:45:27;;;;;;;5.95;5.35;;;30.70;68.40;;;;;;5097127;28;20493;-71
2022/07/23 12:48:00;;;;;;;8.32;5.32;;;30.50;69.10;;;;;;5102857;28;20024;-70
2022/07/23 12:51:02;;;;;;;5.70;4.97;;;30.60;69.00;;;;;;5100957;28;20024;-71
2022/07/23 12:53:37;;;;;;;6.57;5.93;;;30.80;69.10;;;;;;5096121;28;20504;-73
2022/07/23 12:56:05;;;;;;;6.80;5.88;;;31.10;69.40;;;;;;5107379;28;20042;-72